sensor_id;sensor_type;location;lat;lon;timestamp;P1;durP1;ratioP1;P2;durP2;ratioP2
60239;SDS011;46102;39.012;-7.064;2023-02-10T00:00:13;1.35;;;0.90;;
60239;SDS011;46102;39.012;-7.064;2023-02-10T00:02:14;2.17;;;1.33;;
60239;SDS011;46102;39.012;-7.064;2023-02-10T00:04:15;1.60;;;0.93;;
60239;SDS011;46102;39.012;-7.064;2023-02-10T00:06:17;1.77;;;1.02;;
60239;SDS011;46102;39.012;-7.064;2023-02-10T00:08:18;1.30;;;1.20;;
60239;SDS011;46102;39.012;-7.064;2023-02-10T00:10:19;1.15;;;1.15;;
60239;SDS011;46102;39.012;-7.064;2023-02-10T00:12:20;2.55;;;1.30;;
60239;SDS011;46102;39.012;-7.064;2023-02-10T00:14:21;1.92;;;1.20;;
60239;SDS011;46102;39.012;-7.064;2023-02-10T00:16:21;1.25;;;1.13;;
60239;SDS011;46102;39.012;-7.064;2023-02-10T00:18:22;1.95;;;1.05;;
60239;SDS011;46102;39.012;-7.064;2023-02-10T00:20:23;1.88;;;0.90;;
60239;SDS011;46102;39.012;-7.064;2023-02-10T00:22:24;1.40;;;1.10;;
60239;SDS011;46102;39.012;-7.064;2023-02-10T00:24:25;3.28;;;1.25;;
60239;SDS011;46102;39.012;-7.064;2023-02-10T00:26:26;1.08;;;0.98;;
60239;SDS011;46102;39.012;-7.064;2023-02-10T00:28:27;0.85;;;0.85;;
60239;SDS011;46102;39.012;-7.064;2023-02-10T00:30:28;1.17;;;1.08;;
60239;SDS011;46102;39.012;-7.064;2023-02-10T00:32:29;1.30;;;1.17;;
60239;SDS011;46102;39.012;-7.064;2023-02-10T00:34:30;0.88;;;0.88;;
60239;SDS011;46102;39.012;-7.064;2023-02-10T00:36:31;0.93;;;0.93;;
60239;SDS011;46102;39.012;-7.064;2023-02-10T00:38:32;1.25;;;1.15;;
60239;SDS011;46102;39.012;-7.064;2023-02-10T00:40:35;1.30;;;1.20;;
60239;SDS011;46102;39.012;-7.064;2023-02-10T00:42:35;0.98;;;0.88;;
60239;SDS011;46102;39.012;-7.064;2023-02-10T00:44:37;2.13;;;1.02;;
60239;SDS011;46102;39.012;-7.064;2023-02-10T00:46:38;0.93;;;0.88;;
60239;SDS011;46102;39.012;-7.064;2023-02-10T00:48:38;1.00;;;1.00;;
60239;SDS011;46102;39.012;-7.064;2023-02-10T00:50:39;1.65;;;1.10;;
60239;SDS011;46102;39.012;-7.064;2023-02-10T00:52:40;0.90;;;0.90;;
60239;SDS011;46102;39.012;-7.064;2023-02-10T00:54:41;1.20;;;1.10;;
60239;SDS011;46102;39.012;-7.064;2023-02-10T00:56:42;2.83;;;1.35;;
60239;SDS011;46102;39.012;-7.064;2023-02-10T00:58:44;0.60;;;0.60;;
60239;SDS011;46102;39.012;-7.064;2023-02-10T01:00:45;0.80;;;0.80;;
60239;SDS011;46102;39.012;-7.064;2023-02-10T01:02:47;3.45;;;1.23;;
60239;SDS011;46102;39.012;-7.064;2023-02-10T01:04:48;1.77;;;1.20;;
60239;SDS011;46102;39.012;-7.064;2023-02-10T01:06:50;1.25;;;0.93;;
60239;SDS011;46102;39.012;-7.064;2023-02-10T01:08:51;1.70;;;1.10;;
60239;SDS011;46102;39.012;-7.064;2023-02-10T01:10:58;1.40;;;1.30;;
60239;SDS011;46102;39.012;-7.064;2023-02-10T01:13:09;0.93;;;0.93;;
60239;SDS011;46102;39.012;-7.064;2023-02-10T01:15:11;4.07;;;1.48;;
60239;SDS011;46102;39.012;-7.064;2023-02-10T01:17:14;6.78;;;2.85;;
60239;SDS011;46102;39.012;-7.064;2023-02-10T01:19:17;4.30;;;1.60;;
60239;SDS011;46102;39.012;-7.064;2023-02-10T01:21:19;2.03;;;1.10;;
60239;SDS011;46102;39.012;-7.064;2023-02-10T01:23:20;1.52;;;1.38;;
60239;SDS011;46102;39.012;-7.064;2023-02-10T01:25:21;3.55;;;1.27;;
60239;SDS011;46102;39.012;-7.064;2023-02-10T01:27:24;0.82;;;0.82;;
60239;SDS011;46102;39.012;-7.064;2023-02-10T01:29:24;1.40;;;1.30;;
60239;SDS011;46102;39.012;-7.064;2023-02-10T01:31:25;3.35;;;1.67;;
60239;SDS011;46102;39.012;-7.064;2023-02-10T01:33:26;2.10;;;1.45;;
60239;SDS011;46102;39.012;-7.064;2023-02-10T01:35:30;2.90;;;1.88;;
60239;SDS011;46102;39.012;-7.064;2023-02-10T01:37:32;3.83;;;1.80;;
60239;SDS011;46102;39.012;-7.064;2023-02-10T01:39:35;3.03;;;1.50;;
60239;SDS011;46102;39.012;-7.064;2023-02-10T01:41:35;4.65;;;1.77;;
60239;SDS011;46102;39.012;-7.064;2023-02-10T01:43:57;3.15;;;1.58;;
60239;SDS011;46102;39.012;-7.064;2023-02-10T01:46:00;2.33;;;1.58;;
60239;SDS011;46102;39.012;-7.064;2023-02-10T01:48:01;2.55;;;1.42;;
60239;SDS011;46102;39.012;-7.064;2023-02-10T01:50:02;2.20;;;1.30;;
60239;SDS011;46102;39.012;-7.064;2023-02-10T01:52:05;1.58;;;1.23;;
60239;SDS011;46102;39.012;-7.064;2023-02-10T01:54:11;2.45;;;1.17;;
60239;SDS011;46102;39.012;-7.064;2023-02-10T01:56:16;1.65;;;0.75;;
60239;SDS011;46102;39.012;-7.064;2023-02-10T01:58:20;4.57;;;1.60;;
60239;SDS011;46102;39.012;-7.064;2023-02-10T02:00:24;2.17;;;1.52;;
60239;SDS011;46102;39.012;-7.064;2023-02-10T02:02:25;0.90;;;0.90;;
60239;SDS011;46102;39.012;-7.064;2023-02-10T02:04:27;3.00;;;0.95;;
60239;SDS011;46102;39.012;-7.064;2023-02-10T02:06:27;2.08;;;0.90;;
60239;SDS011;46102;39.012;-7.064;2023-02-10T02:08:29;1.00;;;0.90;;
60239;SDS011;46102;39.012;-7.064;2023-02-10T02:10:36;2.38;;;1.13;;
60239;SDS011;46102;39.012;-7.064;2023-02-10T02:12:57;2.15;;;1.20;;
60239;SDS011;46102;39.012;-7.064;2023-02-10T02:15:12;3.13;;;1.17;;
60239;SDS011;46102;39.012;-7.064;2023-02-10T02:17:23;2.10;;;1.00;;
60239;SDS011;46102;39.012;-7.064;2023-02-10T02:19:59;1.95;;;1.13;;
60239;SDS011;46102;39.012;-7.064;2023-02-10T02:22:50;2.85;;;1.05;;
60239;SDS011;46102;39.012;-7.064;2023-02-10T02:29:51;1.08;;;0.90;;
60239;SDS011;46102;39.012;-7.064;2023-02-10T02:34:14;2.10;;;0.80;;
60239;SDS011;46102;39.012;-7.064;2023-02-10T02:36:23;1.23;;;0.52;;
60239;SDS011;46102;39.012;-7.064;2023-02-10T02:38:29;1.23;;;0.68;;
60239;SDS011;46102;39.012;-7.064;2023-02-10T02:40:30;1.38;;;0.80;;
60239;SDS011;46102;39.012;-7.064;2023-02-10T02:42:32;0.70;;;0.70;;
60239;SDS011;46102;39.012;-7.064;2023-02-10T02:44:33;0.65;;;0.65;;
60239;SDS011;46102;39.012;-7.064;2023-02-10T02:46:38;2.28;;;0.93;;
60239;SDS011;46102;39.012;-7.064;2023-02-10T02:56:32;1.48;;;0.60;;
60239;SDS011;46102;39.012;-7.064;2023-02-10T03:00:43;0.70;;;0.63;;
60239;SDS011;46102;39.012;-7.064;2023-02-10T03:02:47;0.98;;;0.50;;
60239;SDS011;46102;39.012;-7.064;2023-02-10T03:04:48;0.60;;;0.60;;
60239;SDS011;46102;39.012;-7.064;2023-02-10T03:06:49;0.75;;;0.70;;
60239;SDS011;46102;39.012;-7.064;2023-02-10T03:08:50;1.67;;;0.63;;
60239;SDS011;46102;39.012;-7.064;2023-02-10T03:10:51;0.55;;;0.55;;
60239;SDS011;46102;39.012;-7.064;2023-02-10T03:12:52;1.05;;;0.52;;
60239;SDS011;46102;39.012;-7.064;2023-02-10T03:14:52;2.00;;;1.10;;
60239;SDS011;46102;39.012;-7.064;2023-02-10T03:16:53;0.60;;;0.60;;
60239;SDS011;46102;39.012;-7.064;2023-02-10T03:18:54;1.10;;;1.00;;
60239;SDS011;46102;39.012;-7.064;2023-02-10T03:20:55;2.03;;;0.80;;
60239;SDS011;46102;39.012;-7.064;2023-02-10T03:22:56;2.20;;;1.00;;
60239;SDS011;46102;39.012;-7.064;2023-02-10T03:24:56;1.40;;;1.27;;
60239;SDS011;46102;39.012;-7.064;2023-02-10T03:26:57;1.23;;;1.02;;
60239;SDS011;46102;39.012;-7.064;2023-02-10T03:28:58;1.20;;;1.10;;
60239;SDS011;46102;39.012;-7.064;2023-02-10T03:31:02;2.75;;;1.00;;
60239;SDS011;46102;39.012;-7.064;2023-02-10T03:33:04;0.60;;;0.60;;
60239;SDS011;46102;39.012;-7.064;2023-02-10T03:35:05;0.70;;;0.70;;
60239;SDS011;46102;39.012;-7.064;2023-02-10T03:37:06;0.40;;;0.40;;
60239;SDS011;46102;39.012;-7.064;2023-02-10T03:39:07;0.80;;;0.80;;
60239;SDS011;46102;39.012;-7.064;2023-02-10T03:41:08;0.70;;;0.70;;
60239;SDS011;46102;39.012;-7.064;2023-02-10T03:43:09;0.50;;;0.50;;
60239;SDS011;46102;39.012;-7.064;2023-02-10T03:45:10;0.40;;;0.40;;
60239;SDS011;46102;39.012;-7.064;2023-02-10T03:47:11;0.68;;;0.65;;
60239;SDS011;46102;39.012;-7.064;2023-02-10T03:49:12;1.08;;;0.50;;
60239;SDS011;46102;39.012;-7.064;2023-02-10T03:51:13;0.77;;;0.77;;
60239;SDS011;46102;39.012;-7.064;2023-02-10T03:53:14;0.63;;;0.40;;
60239;SDS011;46102;39.012;-7.064;2023-02-10T03:55:15;0.68;;;0.63;;
60239;SDS011;46102;39.012;-7.064;2023-02-10T03:57:19;0.50;;;0.50;;
60239;SDS011;46102;39.012;-7.064;2023-02-10T03:59:20;0.60;;;0.60;;
60239;SDS011;46102;39.012;-7.064;2023-02-10T04:01:20;0.40;;;0.40;;
60239;SDS011;46102;39.012;-7.064;2023-02-10T04:03:22;0.50;;;0.50;;
60239;SDS011;46102;39.012;-7.064;2023-02-10T04:05:23;0.70;;;0.70;;
60239;SDS011;46102;39.012;-7.064;2023-02-10T04:07:24;0.75;;;0.75;;
60239;SDS011;46102;39.012;-7.064;2023-02-10T04:09:24;0.60;;;0.60;;
60239;SDS011;46102;39.012;-7.064;2023-02-10T04:11:25;0.50;;;0.50;;
60239;SDS011;46102;39.012;-7.064;2023-02-10T04:13:26;0.73;;;0.60;;
60239;SDS011;46102;39.012;-7.064;2023-02-10T04:15:27;0.60;;;0.60;;
60239;SDS011;46102;39.012;-7.064;2023-02-10T04:17:28;0.50;;;0.50;;
60239;SDS011;46102;39.012;-7.064;2023-02-10T04:19:28;0.60;;;0.60;;
60239;SDS011;46102;39.012;-7.064;2023-02-10T04:21:29;2.58;;;0.65;;
60239;SDS011;46102;39.012;-7.064;2023-02-10T04:23:30;0.60;;;0.60;;
60239;SDS011;46102;39.012;-7.064;2023-02-10T04:25:31;0.40;;;0.40;;
60239;SDS011;46102;39.012;-7.064;2023-02-10T04:27:33;1.38;;;0.55;;
60239;SDS011;46102;39.012;-7.064;2023-02-10T04:29:34;0.50;;;0.50;;
60239;SDS011;46102;39.012;-7.064;2023-02-10T04:31:39;0.60;;;0.60;;
60239;SDS011;46102;39.012;-7.064;2023-02-10T04:33:40;0.60;;;0.60;;
60239;SDS011;46102;39.012;-7.064;2023-02-10T04:35:41;0.50;;;0.50;;
60239;SDS011;46102;39.012;-7.064;2023-02-10T04:37:44;0.68;;;0.68;;
60239;SDS011;46102;39.012;-7.064;2023-02-10T04:39:45;0.60;;;0.60;;
60239;SDS011;46102;39.012;-7.064;2023-02-10T04:41:45;0.50;;;0.50;;
60239;SDS011;46102;39.012;-7.064;2023-02-10T04:43:46;0.85;;;0.60;;
60239;SDS011;46102;39.012;-7.064;2023-02-10T04:45:47;0.73;;;0.73;;
60239;SDS011;46102;39.012;-7.064;2023-02-10T04:47:48;0.70;;;0.70;;
60239;SDS011;46102;39.012;-7.064;2023-02-10T04:49:48;0.50;;;0.50;;
60239;SDS011;46102;39.012;-7.064;2023-02-10T04:51:49;0.55;;;0.55;;
60239;SDS011;46102;39.012;-7.064;2023-02-10T04:53:50;1.08;;;0.80;;
60239;SDS011;46102;39.012;-7.064;2023-02-10T04:55:51;0.55;;;0.55;;
60239;SDS011;46102;39.012;-7.064;2023-02-10T04:57:51;0.85;;;0.85;;
60239;SDS011;46102;39.012;-7.064;2023-02-10T04:59:52;2.25;;;0.50;;
60239;SDS011;46102;39.012;-7.064;2023-02-10T05:01:53;2.22;;;0.52;;
60239;SDS011;46102;39.012;-7.064;2023-02-10T05:03:54;0.40;;;0.40;;
60239;SDS011;46102;39.012;-7.064;2023-02-10T05:05:54;0.40;;;0.40;;
60239;SDS011;46102;39.012;-7.064;2023-02-10T05:07:55;0.32;;;0.32;;
60239;SDS011;46102;39.012;-7.064;2023-02-10T05:09:56;0.50;;;0.50;;
60239;SDS011;46102;39.012;-7.064;2023-02-10T05:11:57;0.80;;;0.80;;
60239;SDS011;46102;39.012;-7.064;2023-02-10T05:13:58;0.52;;;0.52;;
60239;SDS011;46102;39.012;-7.064;2023-02-10T05:15:59;1.30;;;0.70;;
60239;SDS011;46102;39.012;-7.064;2023-02-10T05:17:59;0.50;;;0.50;;
60239;SDS011;46102;39.012;-7.064;2023-02-10T05:20:00;2.55;;;0.77;;
60239;SDS011;46102;39.012;-7.064;2023-02-10T05:22:02;0.60;;;0.60;;
60239;SDS011;46102;39.012;-7.064;2023-02-10T05:24:03;2.70;;;0.73;;
60239;SDS011;46102;39.012;-7.064;2023-02-10T05:26:04;0.88;;;0.88;;
60239;SDS011;46102;39.012;-7.064;2023-02-10T05:28:05;0.63;;;0.63;;
60239;SDS011;46102;39.012;-7.064;2023-02-10T05:30:06;0.85;;;0.80;;
60239;SDS011;46102;39.012;-7.064;2023-02-10T05:32:09;0.50;;;0.50;;
60239;SDS011;46102;39.012;-7.064;2023-02-10T05:34:10;0.63;;;0.63;;
60239;SDS011;46102;39.012;-7.064;2023-02-10T05:36:11;0.60;;;0.60;;
60239;SDS011;46102;39.012;-7.064;2023-02-10T05:38:11;0.68;;;0.63;;
60239;SDS011;46102;39.012;-7.064;2023-02-10T05:40:15;0.55;;;0.55;;
60239;SDS011;46102;39.012;-7.064;2023-02-10T05:42:15;0.88;;;0.63;;
60239;SDS011;46102;39.012;-7.064;2023-02-10T05:44:16;0.80;;;0.80;;
60239;SDS011;46102;39.012;-7.064;2023-02-10T05:46:17;0.80;;;0.75;;
60239;SDS011;46102;39.012;-7.064;2023-02-10T05:48:18;0.60;;;0.60;;
60239;SDS011;46102;39.012;-7.064;2023-02-10T05:50:19;1.08;;;0.98;;
60239;SDS011;46102;39.012;-7.064;2023-02-10T05:52:20;0.80;;;0.80;;
60239;SDS011;46102;39.012;-7.064;2023-02-10T05:54:21;0.70;;;0.70;;
60239;SDS011;46102;39.012;-7.064;2023-02-10T05:56:21;0.90;;;0.90;;
60239;SDS011;46102;39.012;-7.064;2023-02-10T05:58:22;0.70;;;0.70;;
60239;SDS011;46102;39.012;-7.064;2023-02-10T06:00:23;1.13;;;1.00;;
60239;SDS011;46102;39.012;-7.064;2023-02-10T06:02:24;0.80;;;0.80;;
60239;SDS011;46102;39.012;-7.064;2023-02-10T06:04:24;3.30;;;1.25;;
60239;SDS011;46102;39.012;-7.064;2023-02-10T06:06:25;3.92;;;1.50;;
60239;SDS011;46102;39.012;-7.064;2023-02-10T06:08:26;5.95;;;1.45;;
60239;SDS011;46102;39.012;-7.064;2023-02-10T06:10:27;4.70;;;1.85;;
60239;SDS011;46102;39.012;-7.064;2023-02-10T06:12:28;5.00;;;1.70;;
60239;SDS011;46102;39.012;-7.064;2023-02-10T06:14:28;5.30;;;1.40;;
60239;SDS011;46102;39.012;-7.064;2023-02-10T06:16:29;1.75;;;1.13;;
60239;SDS011;46102;39.012;-7.064;2023-02-10T06:18:30;1.02;;;1.02;;
60239;SDS011;46102;39.012;-7.064;2023-02-10T06:20:31;1.35;;;1.17;;
60239;SDS011;46102;39.012;-7.064;2023-02-10T06:22:32;2.28;;;0.93;;
60239;SDS011;46102;39.012;-7.064;2023-02-10T06:24:33;1.38;;;1.13;;
60239;SDS011;46102;39.012;-7.064;2023-02-10T06:26:34;1.70;;;1.05;;
60239;SDS011;46102;39.012;-7.064;2023-02-10T06:28:35;2.83;;;0.90;;
60239;SDS011;46102;39.012;-7.064;2023-02-10T06:30:36;2.15;;;1.30;;
60239;SDS011;46102;39.012;-7.064;2023-02-10T06:32:36;2.67;;;1.02;;
60239;SDS011;46102;39.012;-7.064;2023-02-10T06:34:37;3.65;;;1.17;;
60239;SDS011;46102;39.012;-7.064;2023-02-10T06:36:38;2.80;;;1.52;;
60239;SDS011;46102;39.012;-7.064;2023-02-10T06:38:39;1.48;;;1.20;;
60239;SDS011;46102;39.012;-7.064;2023-02-10T06:40:40;1.35;;;0.90;;
60239;SDS011;46102;39.012;-7.064;2023-02-10T06:42:41;2.67;;;0.80;;
60239;SDS011;46102;39.012;-7.064;2023-02-10T06:44:42;1.13;;;1.02;;
60239;SDS011;46102;39.012;-7.064;2023-02-10T06:46:42;6.10;;;1.77;;
60239;SDS011;46102;39.012;-7.064;2023-02-10T06:48:43;3.63;;;1.65;;
60239;SDS011;46102;39.012;-7.064;2023-02-10T06:50:44;2.78;;;1.00;;
60239;SDS011;46102;39.012;-7.064;2023-02-10T06:52:45;1.15;;;0.88;;
60239;SDS011;46102;39.012;-7.064;2023-02-10T06:54:46;1.00;;;0.82;;
60239;SDS011;46102;39.012;-7.064;2023-02-10T06:56:48;1.65;;;1.00;;
60239;SDS011;46102;39.012;-7.064;2023-02-10T06:58:48;1.67;;;0.60;;
60239;SDS011;46102;39.012;-7.064;2023-02-10T07:00:49;1.00;;;1.00;;
60239;SDS011;46102;39.012;-7.064;2023-02-10T07:02:50;1.05;;;0.95;;
60239;SDS011;46102;39.012;-7.064;2023-02-10T07:04:50;1.23;;;0.88;;
60239;SDS011;46102;39.012;-7.064;2023-02-10T07:06:51;1.10;;;1.00;;
60239;SDS011;46102;39.012;-7.064;2023-02-10T07:08:52;0.73;;;0.73;;
60239;SDS011;46102;39.012;-7.064;2023-02-10T07:10:53;1.52;;;0.98;;
60239;SDS011;46102;39.012;-7.064;2023-02-10T07:12:53;1.40;;;0.90;;
60239;SDS011;46102;39.012;-7.064;2023-02-10T07:14:54;0.73;;;0.73;;
60239;SDS011;46102;39.012;-7.064;2023-02-10T07:16:55;1.00;;;1.00;;
60239;SDS011;46102;39.012;-7.064;2023-02-10T07:18:56;1.65;;;1.13;;
60239;SDS011;46102;39.012;-7.064;2023-02-10T07:20:57;1.38;;;1.27;;
60239;SDS011;46102;39.012;-7.064;2023-02-10T07:22:57;1.10;;;1.00;;
60239;SDS011;46102;39.012;-7.064;2023-02-10T07:24:58;2.03;;;0.93;;
60239;SDS011;46102;39.012;-7.064;2023-02-10T07:26:59;0.85;;;0.80;;
60239;SDS011;46102;39.012;-7.064;2023-02-10T07:29:00;1.08;;;0.88;;
60239;SDS011;46102;39.012;-7.064;2023-02-10T07:31:01;1.80;;;1.08;;
60239;SDS011;46102;39.012;-7.064;2023-02-10T07:33:02;1.02;;;0.73;;
60239;SDS011;46102;39.012;-7.064;2023-02-10T07:35:03;0.93;;;0.93;;
60239;SDS011;46102;39.012;-7.064;2023-02-10T07:37:04;1.20;;;1.05;;
60239;SDS011;46102;39.012;-7.064;2023-02-10T07:39:05;2.08;;;1.30;;
60239;SDS011;46102;39.012;-7.064;2023-02-10T07:41:07;2.03;;;1.00;;
60239;SDS011;46102;39.012;-7.064;2023-02-10T07:43:08;1.52;;;1.25;;
60239;SDS011;46102;39.012;-7.064;2023-02-10T07:45:17;2.75;;;1.20;;
60239;SDS011;46102;39.012;-7.064;2023-02-10T07:47:18;2.03;;;1.42;;
60239;SDS011;46102;39.012;-7.064;2023-02-10T07:49:19;2.53;;;1.70;;
60239;SDS011;46102;39.012;-7.064;2023-02-10T07:51:20;1.60;;;1.50;;
60239;SDS011;46102;39.012;-7.064;2023-02-10T07:53:21;1.67;;;1.58;;
60239;SDS011;46102;39.012;-7.064;2023-02-10T07:55:22;1.85;;;1.52;;
60239;SDS011;46102;39.012;-7.064;2023-02-10T07:57:23;2.47;;;1.40;;
60239;SDS011;46102;39.012;-7.064;2023-02-10T07:59:23;3.78;;;1.90;;
60239;SDS011;46102;39.012;-7.064;2023-02-10T08:01:24;3.38;;;1.40;;
60239;SDS011;46102;39.012;-7.064;2023-02-10T08:03:25;4.05;;;1.52;;
60239;SDS011;46102;39.012;-7.064;2023-02-10T08:05:26;1.85;;;1.20;;
60239;SDS011;46102;39.012;-7.064;2023-02-10T08:07:28;2.55;;;1.20;;
60239;SDS011;46102;39.012;-7.064;2023-02-10T08:09:29;1.17;;;0.93;;
60239;SDS011;46102;39.012;-7.064;2023-02-10T08:11:30;1.77;;;1.15;;
60239;SDS011;46102;39.012;-7.064;2023-02-10T08:13:31;3.13;;;1.50;;
60239;SDS011;46102;39.012;-7.064;2023-02-10T08:15:33;1.15;;;1.05;;
60239;SDS011;46102;39.012;-7.064;2023-02-10T08:17:34;1.08;;;1.00;;
60239;SDS011;46102;39.012;-7.064;2023-02-10T08:19:37;1.77;;;1.13;;
60239;SDS011;46102;39.012;-7.064;2023-02-10T08:21:37;0.82;;;0.82;;
60239;SDS011;46102;39.012;-7.064;2023-02-10T08:23:38;0.80;;;0.80;;
60239;SDS011;46102;39.012;-7.064;2023-02-10T08:25:39;1.33;;;0.90;;
60239;SDS011;46102;39.012;-7.064;2023-02-10T08:27:40;0.80;;;0.80;;
60239;SDS011;46102;39.012;-7.064;2023-02-10T08:29:41;1.17;;;0.90;;
60239;SDS011;46102;39.012;-7.064;2023-02-10T08:31:42;1.38;;;0.90;;
60239;SDS011;46102;39.012;-7.064;2023-02-10T08:33:43;0.95;;;0.90;;
60239;SDS011;46102;39.012;-7.064;2023-02-10T08:35:43;1.70;;;0.90;;
60239;SDS011;46102;39.012;-7.064;2023-02-10T08:37:44;0.77;;;0.77;;
60239;SDS011;46102;39.012;-7.064;2023-02-10T08:39:45;1.00;;;0.95;;
60239;SDS011;46102;39.012;-7.064;2023-02-10T08:41:46;0.85;;;0.85;;
60239;SDS011;46102;39.012;-7.064;2023-02-10T08:43:47;0.85;;;0.85;;
60239;SDS011;46102;39.012;-7.064;2023-02-10T08:45:48;2.45;;;1.20;;
60239;SDS011;46102;39.012;-7.064;2023-02-10T08:47:49;0.95;;;0.95;;
60239;SDS011;46102;39.012;-7.064;2023-02-10T08:49:50;1.23;;;0.85;;
60239;SDS011;46102;39.012;-7.064;2023-02-10T08:51:51;1.55;;;0.98;;
60239;SDS011;46102;39.012;-7.064;2023-02-10T08:53:52;0.70;;;0.70;;
60239;SDS011;46102;39.012;-7.064;2023-02-10T08:55:56;1.70;;;0.93;;
60239;SDS011;46102;39.012;-7.064;2023-02-10T08:57:58;1.02;;;0.95;;
60239;SDS011;46102;39.012;-7.064;2023-02-10T08:59:59;0.80;;;0.80;;
60239;SDS011;46102;39.012;-7.064;2023-02-10T09:02:00;1.00;;;0.90;;
60239;SDS011;46102;39.012;-7.064;2023-02-10T09:04:01;1.55;;;1.33;;
60239;SDS011;46102;39.012;-7.064;2023-02-10T09:06:02;8.68;;;0.70;;
60239;SDS011;46102;39.012;-7.064;2023-02-10T09:08:03;1.88;;;0.80;;
60239;SDS011;46102;39.012;-7.064;2023-02-10T09:10:04;2.50;;;0.70;;
60239;SDS011;46102;39.012;-7.064;2023-02-10T09:12:05;1.10;;;1.00;;
60239;SDS011;46102;39.012;-7.064;2023-02-10T09:14:07;6.28;;;0.98;;
60239;SDS011;46102;39.012;-7.064;2023-02-10T09:16:08;3.22;;;1.92;;
60239;SDS011;46102;39.012;-7.064;2023-02-10T09:18:10;0.90;;;0.73;;
60239;SDS011;46102;39.012;-7.064;2023-02-10T09:20:11;0.73;;;0.68;;
60239;SDS011;46102;39.012;-7.064;2023-02-10T09:22:13;1.95;;;0.60;;
60239;SDS011;46102;39.012;-7.064;2023-02-10T09:24:14;0.80;;;0.80;;
60239;SDS011;46102;39.012;-7.064;2023-02-10T09:26:16;1.00;;;1.00;;
60239;SDS011;46102;39.012;-7.064;2023-02-10T09:28:16;1.58;;;1.15;;
60239;SDS011;46102;39.012;-7.064;2023-02-10T09:30:17;0.90;;;0.90;;
60239;SDS011;46102;39.012;-7.064;2023-02-10T09:32:18;1.42;;;0.90;;
60239;SDS011;46102;39.012;-7.064;2023-02-10T09:34:19;0.90;;;0.90;;
60239;SDS011;46102;39.012;-7.064;2023-02-10T09:36:20;1.05;;;0.82;;
60239;SDS011;46102;39.012;-7.064;2023-02-10T09:38:21;0.80;;;0.80;;
60239;SDS011;46102;39.012;-7.064;2023-02-10T09:40:23;1.95;;;1.33;;
60239;SDS011;46102;39.012;-7.064;2023-02-10T09:44:38;1.20;;;1.10;;
60239;SDS011;46102;39.012;-7.064;2023-02-10T09:46:51;1.55;;;1.05;;
60239;SDS011;46102;39.012;-7.064;2023-02-10T09:53:28;2.00;;;1.17;;
60239;SDS011;46102;39.012;-7.064;2023-02-10T09:55:33;2.40;;;1.63;;
60239;SDS011;46102;39.012;-7.064;2023-02-10T09:57:42;1.50;;;1.00;;
60239;SDS011;46102;39.012;-7.064;2023-02-10T09:59:48;1.35;;;1.20;;
60239;SDS011;46102;39.012;-7.064;2023-02-10T10:01:54;2.60;;;1.20;;
60239;SDS011;46102;39.012;-7.064;2023-02-10T10:04:00;3.45;;;1.50;;
60239;SDS011;46102;39.012;-7.064;2023-02-10T10:06:26;1.77;;;1.50;;
60239;SDS011;46102;39.012;-7.064;2023-02-10T10:11:05;1.88;;;1.40;;
60239;SDS011;46102;39.012;-7.064;2023-02-10T10:13:24;1.83;;;1.05;;
60239;SDS011;46102;39.012;-7.064;2023-02-10T10:15:31;2.00;;;1.17;;
60239;SDS011;46102;39.012;-7.064;2023-02-10T10:17:41;1.73;;;1.30;;
60239;SDS011;46102;39.012;-7.064;2023-02-10T10:21:54;0.95;;;0.93;;
60239;SDS011;46102;39.012;-7.064;2023-02-10T10:24:14;2.05;;;1.27;;
60239;SDS011;46102;39.012;-7.064;2023-02-10T10:26:38;0.70;;;0.70;;
60239;SDS011;46102;39.012;-7.064;2023-02-10T10:31:01;1.35;;;0.75;;
60239;SDS011;46102;39.012;-7.064;2023-02-10T10:33:23;0.80;;;0.80;;
60239;SDS011;46102;39.012;-7.064;2023-02-10T10:35:31;5.30;;;1.17;;
60239;SDS011;46102;39.012;-7.064;2023-02-10T10:37:38;0.88;;;0.88;;
60239;SDS011;46102;39.012;-7.064;2023-02-10T10:39:40;1.30;;;1.20;;
60239;SDS011;46102;39.012;-7.064;2023-02-10T10:41:44;0.70;;;0.70;;
60239;SDS011;46102;39.012;-7.064;2023-02-10T10:43:53;0.70;;;0.70;;
60239;SDS011;46102;39.012;-7.064;2023-02-10T10:45:57;1.83;;;0.90;;
60239;SDS011;46102;39.012;-7.064;2023-02-10T10:48:12;1.48;;;0.70;;
60239;SDS011;46102;39.012;-7.064;2023-02-10T10:50:17;1.52;;;0.95;;
60239;SDS011;46102;39.012;-7.064;2023-02-10T10:52:26;2.15;;;1.17;;
60239;SDS011;46102;39.012;-7.064;2023-02-10T10:54:29;3.45;;;1.27;;
60239;SDS011;46102;39.012;-7.064;2023-02-10T10:58:40;1.55;;;0.98;;
60239;SDS011;46102;39.012;-7.064;2023-02-10T11:00:51;1.08;;;0.98;;
60239;SDS011;46102;39.012;-7.064;2023-02-10T11:03:03;6.53;;;1.30;;
60239;SDS011;46102;39.012;-7.064;2023-02-10T11:05:05;0.93;;;0.93;;
60239;SDS011;46102;39.012;-7.064;2023-02-10T11:07:18;1.55;;;1.08;;
60239;SDS011;46102;39.012;-7.064;2023-02-10T11:09:30;1.25;;;1.15;;
60239;SDS011;46102;39.012;-7.064;2023-02-10T11:11:37;1.73;;;1.15;;
60239;SDS011;46102;39.012;-7.064;2023-02-10T11:13:49;1.67;;;1.08;;
60239;SDS011;46102;39.012;-7.064;2023-02-10T11:16:06;1.35;;;1.20;;
60239;SDS011;46102;39.012;-7.064;2023-02-10T11:18:17;1.67;;;1.50;;
60239;SDS011;46102;39.012;-7.064;2023-02-10T11:22:27;2.85;;;1.17;;
60239;SDS011;46102;39.012;-7.064;2023-02-10T11:24:29;1.20;;;1.10;;
60239;SDS011;46102;39.012;-7.064;2023-02-10T11:26:33;2.30;;;1.52;;
60239;SDS011;46102;39.012;-7.064;2023-02-10T11:28:34;1.02;;;0.85;;
60239;SDS011;46102;39.012;-7.064;2023-02-10T11:30:38;1.40;;;1.30;;
60239;SDS011;46102;39.012;-7.064;2023-02-10T11:32:39;3.88;;;1.02;;
60239;SDS011;46102;39.012;-7.064;2023-02-10T11:34:44;1.00;;;1.00;;
60239;SDS011;46102;39.012;-7.064;2023-02-10T11:36:49;2.90;;;0.93;;
60239;SDS011;46102;39.012;-7.064;2023-02-10T11:38:58;1.58;;;1.20;;
60239;SDS011;46102;39.012;-7.064;2023-02-10T11:41:02;2.63;;;1.15;;
60239;SDS011;46102;39.012;-7.064;2023-02-10T11:43:05;1.58;;;0.90;;
60239;SDS011;46102;39.012;-7.064;2023-02-10T11:47:16;1.77;;;1.30;;
60239;SDS011;46102;39.012;-7.064;2023-02-10T11:49:17;3.40;;;1.52;;
60239;SDS011;46102;39.012;-7.064;2023-02-10T11:51:18;5.60;;;1.65;;
60239;SDS011;46102;39.012;-7.064;2023-02-10T11:53:21;2.03;;;1.35;;
60239;SDS011;46102;39.012;-7.064;2023-02-10T11:55:37;1.65;;;1.55;;
60239;SDS011;46102;39.012;-7.064;2023-02-10T12:00:57;2.80;;;1.50;;
60239;SDS011;46102;39.012;-7.064;2023-02-10T12:05:31;2.25;;;1.10;;
60239;SDS011;46102;39.012;-7.064;2023-02-10T12:07:58;1.05;;;0.95;;
60239;SDS011;46102;39.012;-7.064;2023-02-10T12:12:36;1.27;;;1.15;;
60239;SDS011;46102;39.012;-7.064;2023-02-10T12:14:54;1.05;;;0.85;;
60239;SDS011;46102;39.012;-7.064;2023-02-10T12:22:05;2.80;;;1.20;;
60239;SDS011;46102;39.012;-7.064;2023-02-10T12:35:29;0.90;;;0.90;;
60239;SDS011;46102;39.012;-7.064;2023-02-10T12:53:55;1.30;;;0.80;;
60239;SDS011;46102;39.012;-7.064;2023-02-10T12:56:07;1.23;;;1.13;;
60239;SDS011;46102;39.012;-7.064;2023-02-10T12:58:15;3.42;;;0.95;;
60239;SDS011;46102;39.012;-7.064;2023-02-10T13:02:27;2.08;;;1.10;;
60239;SDS011;46102;39.012;-7.064;2023-02-10T13:04:38;1.30;;;0.90;;
60239;SDS011;46102;39.012;-7.064;2023-02-10T13:06:53;1.42;;;1.00;;
60239;SDS011;46102;39.012;-7.064;2023-02-10T13:11:14;1.75;;;1.23;;
60239;SDS011;46102;39.012;-7.064;2023-02-10T13:13:25;1.60;;;1.08;;
60239;SDS011;46102;39.012;-7.064;2023-02-10T13:15:31;1.05;;;1.00;;
60239;SDS011;46102;39.012;-7.064;2023-02-10T13:17:41;2.00;;;1.05;;
60239;SDS011;46102;39.012;-7.064;2023-02-10T13:22:00;0.75;;;0.75;;
60239;SDS011;46102;39.012;-7.064;2023-02-10T13:24:10;4.07;;;1.20;;
60239;SDS011;46102;39.012;-7.064;2023-02-10T13:29:03;7.47;;;1.00;;
60239;SDS011;46102;39.012;-7.064;2023-02-10T13:31:39;1.20;;;1.10;;
60239;SDS011;46102;39.012;-7.064;2023-02-10T13:36:05;1.95;;;1.17;;
60239;SDS011;46102;39.012;-7.064;2023-02-10T13:38:15;2.20;;;1.20;;
60239;SDS011;46102;39.012;-7.064;2023-02-10T13:44:30;1.15;;;0.82;;